sensor_id;sensor_type;location;lat;lon;timestamp;temperature;humidity
75262;DHT22;63859;51.064;4.580;2023-01-04T00:00:41;9.10;99.90
75262;DHT22;63859;51.064;4.580;2023-01-04T00:03:07;9.10;99.90
75262;DHT22;63859;51.064;4.580;2023-01-04T00:05:32;9.10;99.90
75262;DHT22;63859;51.064;4.580;2023-01-04T00:07:58;9.10;99.90
75262;DHT22;63859;51.064;4.580;2023-01-04T00:10:23;9.10;99.90
75262;DHT22;63859;51.064;4.580;2023-01-04T00:12:49;9.10;99.90
75262;DHT22;63859;51.064;4.580;2023-01-04T00:15:15;9.20;99.90
75262;DHT22;63859;51.064;4.580;2023-01-04T00:17:40;9.20;99.90
75262;DHT22;63859;51.064;4.580;2023-01-04T00:20:06;9.20;99.90
75262;DHT22;63859;51.064;4.580;2023-01-04T00:22:33;9.30;99.90
75262;DHT22;63859;51.064;4.580;2023-01-04T00:24:58;9.20;99.90
75262;DHT22;63859;51.064;4.580;2023-01-04T00:27:24;9.30;99.90
75262;DHT22;63859;51.064;4.580;2023-01-04T00:29:50;9.30;99.90
75262;DHT22;63859;51.064;4.580;2023-01-04T00:32:15;9.40;99.90
75262;DHT22;63859;51.064;4.580;2023-01-04T00:34:41;9.40;99.90
75262;DHT22;63859;51.064;4.580;2023-01-04T00:37:06;9.40;99.90
75262;DHT22;63859;51.064;4.580;2023-01-04T00:39:32;9.40;99.90
75262;DHT22;63859;51.064;4.580;2023-01-04T00:41:57;9.40;99.90
75262;DHT22;63859;51.064;4.580;2023-01-04T00:44:30;9.50;99.90
75262;DHT22;63859;51.064;4.580;2023-01-04T00:46:57;9.50;99.90
75262;DHT22;63859;51.064;4.580;2023-01-04T00:49:23;9.50;99.90
75262;DHT22;63859;51.064;4.580;2023-01-04T00:51:49;9.50;99.90
75262;DHT22;63859;51.064;4.580;2023-01-04T00:54:15;9.40;99.90
75262;DHT22;63859;51.064;4.580;2023-01-04T00:56:41;9.50;99.90
75262;DHT22;63859;51.064;4.580;2023-01-04T00:59:07;9.50;99.90
75262;DHT22;63859;51.064;4.580;2023-01-04T01:01:33;9.50;99.90
75262;DHT22;63859;51.064;4.580;2023-01-04T01:04:01;9.60;99.90
75262;DHT22;63859;51.064;4.580;2023-01-04T01:06:28;9.50;99.90
75262;DHT22;63859;51.064;4.580;2023-01-04T01:08:54;9.60;99.90
75262;DHT22;63859;51.064;4.580;2023-01-04T01:11:20;9.50;99.90
75262;DHT22;63859;51.064;4.580;2023-01-04T01:13:47;9.60;99.90
75262;DHT22;63859;51.064;4.580;2023-01-04T01:16:15;9.50;99.90
75262;DHT22;63859;51.064;4.580;2023-01-04T01:18:42;9.50;99.90
75262;DHT22;63859;51.064;4.580;2023-01-04T01:21:11;9.60;99.90
75262;DHT22;63859;51.064;4.580;2023-01-04T01:23:37;9.60;99.90
75262;DHT22;63859;51.064;4.580;2023-01-04T01:26:05;9.60;99.90
75262;DHT22;63859;51.064;4.580;2023-01-04T01:28:32;9.60;99.90
75262;DHT22;63859;51.064;4.580;2023-01-04T01:30:58;9.60;99.90
75262;DHT22;63859;51.064;4.580;2023-01-04T01:33:25;9.60;99.90
75262;DHT22;63859;51.064;4.580;2023-01-04T01:35:51;9.60;99.90
75262;DHT22;63859;51.064;4.580;2023-01-04T01:38:17;9.60;99.90
75262;DHT22;63859;51.064;4.580;2023-01-04T01:40:43;9.60;99.90
75262;DHT22;63859;51.064;4.580;2023-01-04T01:43:21;9.60;99.90
75262;DHT22;63859;51.064;4.580;2023-01-04T01:45:50;9.60;99.90
75262;DHT22;63859;51.064;4.580;2023-01-04T01:48:21;9.70;99.90
75262;DHT22;63859;51.064;4.580;2023-01-04T01:50:49;9.70;99.90
75262;DHT22;63859;51.064;4.580;2023-01-04T01:53:15;9.60;99.90
75262;DHT22;63859;51.064;4.580;2023-01-04T01:55:42;9.60;99.90
75262;DHT22;63859;51.064;4.580;2023-01-04T01:58:12;9.60;99.90
75262;DHT22;63859;51.064;4.580;2023-01-04T02:00:40;9.70;99.90
75262;DHT22;63859;51.064;4.580;2023-01-04T02:03:15;9.70;99.90
75262;DHT22;63859;51.064;4.580;2023-01-04T02:05:42;9.70;99.90
75262;DHT22;63859;51.064;4.580;2023-01-04T02:08:09;9.80;99.90
75262;DHT22;63859;51.064;4.580;2023-01-04T02:10:36;9.70;99.90
75262;DHT22;63859;51.064;4.580;2023-01-04T02:13:05;9.80;99.90
75262;DHT22;63859;51.064;4.580;2023-01-04T02:18:32;9.80;99.90
75262;DHT22;63859;51.064;4.580;2023-01-04T02:21:13;9.90;99.90
75262;DHT22;63859;51.064;4.580;2023-01-04T02:26:36;10.00;99.90
75262;DHT22;63859;51.064;4.580;2023-01-04T02:31:56;9.90;99.90
75262;DHT22;63859;51.064;4.580;2023-01-04T02:34:46;9.90;99.90
75262;DHT22;63859;51.064;4.580;2023-01-04T02:37:27;10.00;99.90
75262;DHT22;63859;51.064;4.580;2023-01-04T02:40:16;10.00;99.90
75262;DHT22;63859;51.064;4.580;2023-01-04T02:43:07;10.00;99.90
75262;DHT22;63859;51.064;4.580;2023-01-04T02:45:59;10.00;99.90
75262;DHT22;63859;51.064;4.580;2023-01-04T02:48:37;10.10;99.90
75262;DHT22;63859;51.064;4.580;2023-01-04T02:53:55;10.10;99.90
75262;DHT22;63859;51.064;4.580;2023-01-04T03:02:14;10.20;99.90
75262;DHT22;63859;51.064;4.580;2023-01-04T03:13:18;10.20;99.90
75262;DHT22;63859;51.064;4.580;2023-01-04T03:15:52;10.30;99.90
75262;DHT22;63859;51.064;4.580;2023-01-04T03:18:30;10.30;99.90
75262;DHT22;63859;51.064;4.580;2023-01-04T03:20:58;10.30;99.90
75262;DHT22;63859;51.064;4.580;2023-01-04T03:23:29;10.30;99.90
75262;DHT22;63859;51.064;4.580;2023-01-04T03:26:31;10.40;99.90
75262;DHT22;63859;51.064;4.580;2023-01-04T03:29:34;10.40;99.90
75262;DHT22;63859;51.064;4.580;2023-01-04T03:35:31;10.40;99.90
75262;DHT22;63859;51.064;4.580;2023-01-04T03:38:51;10.40;99.90
75262;DHT22;63859;51.064;4.580;2023-01-04T03:41:18;10.50;99.90
75262;DHT22;63859;51.064;4.580;2023-01-04T03:47:09;10.50;99.90
75262;DHT22;63859;51.064;4.580;2023-01-04T03:50:05;10.50;99.90
75262;DHT22;63859;51.064;4.580;2023-01-04T03:52:34;10.50;99.90
75262;DHT22;63859;51.064;4.580;2023-01-04T03:55:02;10.60;99.90
75262;DHT22;63859;51.064;4.580;2023-01-04T03:57:31;10.60;99.90
75262;DHT22;63859;51.064;4.580;2023-01-04T04:00:04;10.60;99.90
75262;DHT22;63859;51.064;4.580;2023-01-04T04:02:32;10.60;99.90
75262;DHT22;63859;51.064;4.580;2023-01-04T04:04:59;10.60;99.90
75262;DHT22;63859;51.064;4.580;2023-01-04T04:07:43;10.70;99.90
75262;DHT22;63859;51.064;4.580;2023-01-04T04:10:27;10.70;99.90
75262;DHT22;63859;51.064;4.580;2023-01-04T04:12:53;10.70;99.90
75262;DHT22;63859;51.064;4.580;2023-01-04T04:15:19;10.70;99.90
75262;DHT22;63859;51.064;4.580;2023-01-04T04:17:44;10.70;99.90
75262;DHT22;63859;51.064;4.580;2023-01-04T04:20:10;10.70;99.90
75262;DHT22;63859;51.064;4.580;2023-01-04T04:22:37;10.70;99.90
75262;DHT22;63859;51.064;4.580;2023-01-04T04:25:03;10.80;99.90
75262;DHT22;63859;51.064;4.580;2023-01-04T04:27:29;10.80;99.90
75262;DHT22;63859;51.064;4.580;2023-01-04T04:29:54;10.90;99.90
75262;DHT22;63859;51.064;4.580;2023-01-04T04:32:20;10.90;99.90
75262;DHT22;63859;51.064;4.580;2023-01-04T04:34:46;10.90;99.90
75262;DHT22;63859;51.064;4.580;2023-01-04T04:37:11;11.00;99.90
75262;DHT22;63859;51.064;4.580;2023-01-04T04:39:37;11.00;99.90
75262;DHT22;63859;51.064;4.580;2023-01-04T04:42:02;11.00;99.90
75262;DHT22;63859;51.064;4.580;2023-01-04T04:44:28;11.00;99.90
75262;DHT22;63859;51.064;4.580;2023-01-04T04:46:53;11.10;99.90
75262;DHT22;63859;51.064;4.580;2023-01-04T04:49:19;11.00;99.90
75262;DHT22;63859;51.064;4.580;2023-01-04T04:51:45;11.00;99.90
75262;DHT22;63859;51.064;4.580;2023-01-04T04:54:14;11.00;99.90
75262;DHT22;63859;51.064;4.580;2023-01-04T04:56:40;11.10;99.90
75262;DHT22;63859;51.064;4.580;2023-01-04T04:59:06;11.10;99.90
75262;DHT22;63859;51.064;4.580;2023-01-04T05:01:32;11.10;99.90
75262;DHT22;63859;51.064;4.580;2023-01-04T05:03:57;11.10;99.90
75262;DHT22;63859;51.064;4.580;2023-01-04T05:06:23;11.10;99.90
75262;DHT22;63859;51.064;4.580;2023-01-04T05:08:49;11.10;99.90
75262;DHT22;63859;51.064;4.580;2023-01-04T05:11:15;11.20;99.90
75262;DHT22;63859;51.064;4.580;2023-01-04T05:13:40;11.20;99.90
75262;DHT22;63859;51.064;4.580;2023-01-04T05:16:08;11.20;99.90
75262;DHT22;63859;51.064;4.580;2023-01-04T05:18:34;11.20;99.90
75262;DHT22;63859;51.064;4.580;2023-01-04T05:21:00;11.30;99.90
75262;DHT22;63859;51.064;4.580;2023-01-04T05:23:27;11.30;99.90
75262;DHT22;63859;51.064;4.580;2023-01-04T05:25:56;11.30;99.90
75262;DHT22;63859;51.064;4.580;2023-01-04T05:28:22;11.30;99.90
75262;DHT22;63859;51.064;4.580;2023-01-04T05:30:49;11.40;99.90
75262;DHT22;63859;51.064;4.580;2023-01-04T05:33:24;11.30;99.90
75262;DHT22;63859;51.064;4.580;2023-01-04T05:35:50;11.30;99.90
75262;DHT22;63859;51.064;4.580;2023-01-04T05:38:17;11.40;99.90
75262;DHT22;63859;51.064;4.580;2023-01-04T05:40:43;11.40;99.90
75262;DHT22;63859;51.064;4.580;2023-01-04T05:43:10;11.40;99.90
75262;DHT22;63859;51.064;4.580;2023-01-04T05:45:37;11.30;99.90
75262;DHT22;63859;51.064;4.580;2023-01-04T05:48:03;11.30;99.90
75262;DHT22;63859;51.064;4.580;2023-01-04T05:50:28;11.30;99.90
75262;DHT22;63859;51.064;4.580;2023-01-04T05:52:54;11.20;99.90
75262;DHT22;63859;51.064;4.580;2023-01-04T05:55:20;11.10;99.90
75262;DHT22;63859;51.064;4.580;2023-01-04T05:57:46;11.20;99.90
75262;DHT22;63859;51.064;4.580;2023-01-04T06:00:12;11.20;99.90
75262;DHT22;63859;51.064;4.580;2023-01-04T06:02:38;11.20;99.90
75262;DHT22;63859;51.064;4.580;2023-01-04T06:05:05;11.30;99.90
75262;DHT22;63859;51.064;4.580;2023-01-04T06:07:30;11.30;99.90
75262;DHT22;63859;51.064;4.580;2023-01-04T06:09:56;11.30;99.90
75262;DHT22;63859;51.064;4.580;2023-01-04T06:12:22;11.40;99.90
75262;DHT22;63859;51.064;4.580;2023-01-04T06:14:48;11.50;99.90
75262;DHT22;63859;51.064;4.580;2023-01-04T06:17:13;11.50;99.90
75262;DHT22;63859;51.064;4.580;2023-01-04T06:19:39;11.50;99.90
75262;DHT22;63859;51.064;4.580;2023-01-04T06:22:06;11.50;99.90
75262;DHT22;63859;51.064;4.580;2023-01-04T06:24:32;11.60;99.90
75262;DHT22;63859;51.064;4.580;2023-01-04T06:27:01;11.60;99.90
75262;DHT22;63859;51.064;4.580;2023-01-04T06:29:27;11.60;99.90
75262;DHT22;63859;51.064;4.580;2023-01-04T06:31:53;11.60;99.90
75262;DHT22;63859;51.064;4.580;2023-01-04T06:34:19;11.70;99.90
75262;DHT22;63859;51.064;4.580;2023-01-04T06:36:45;11.70;99.90
75262;DHT22;63859;51.064;4.580;2023-01-04T06:39:10;11.70;99.90
75262;DHT22;63859;51.064;4.580;2023-01-04T06:41:36;11.80;99.90
75262;DHT22;63859;51.064;4.580;2023-01-04T06:44:02;11.70;99.90
75262;DHT22;63859;51.064;4.580;2023-01-04T06:46:28;11.70;99.90
75262;DHT22;63859;51.064;4.580;2023-01-04T06:48:53;11.70;99.90
75262;DHT22;63859;51.064;4.580;2023-01-04T06:51:20;11.70;99.90
75262;DHT22;63859;51.064;4.580;2023-01-04T06:53:45;11.70;99.90
75262;DHT22;63859;51.064;4.580;2023-01-04T06:56:11;11.70;99.90
75262;DHT22;63859;51.064;4.580;2023-01-04T06:58:37;11.70;99.90
75262;DHT22;63859;51.064;4.580;2023-01-04T07:01:03;11.70;99.90
75262;DHT22;63859;51.064;4.580;2023-01-04T07:03:29;11.70;99.90
75262;DHT22;63859;51.064;4.580;2023-01-04T07:05:55;11.70;99.90
75262;DHT22;63859;51.064;4.580;2023-01-04T07:08:20;11.70;99.90
75262;DHT22;63859;51.064;4.580;2023-01-04T07:10:46;11.70;99.90
75262;DHT22;63859;51.064;4.580;2023-01-04T07:13:12;11.70;99.90
75262;DHT22;63859;51.064;4.580;2023-01-04T07:15:38;11.80;99.90
75262;DHT22;63859;51.064;4.580;2023-01-04T07:18:03;11.80;99.90
75262;DHT22;63859;51.064;4.580;2023-01-04T07:20:29;11.80;99.90
75262;DHT22;63859;51.064;4.580;2023-01-04T07:22:55;11.80;99.90
75262;DHT22;63859;51.064;4.580;2023-01-04T07:25:20;11.80;99.90
75262;DHT22;63859;51.064;4.580;2023-01-04T07:27:53;11.80;99.90
75262;DHT22;63859;51.064;4.580;2023-01-04T07:30:20;11.80;99.90
75262;DHT22;63859;51.064;4.580;2023-01-04T07:32:46;11.80;99.90
75262;DHT22;63859;51.064;4.580;2023-01-04T07:35:12;11.90;99.90
75262;DHT22;63859;51.064;4.580;2023-01-04T07:37:37;11.90;99.90
75262;DHT22;63859;51.064;4.580;2023-01-04T07:40:04;11.90;99.90
75262;DHT22;63859;51.064;4.580;2023-01-04T07:42:30;11.90;99.90
75262;DHT22;63859;51.064;4.580;2023-01-04T07:44:55;12.00;99.90
75262;DHT22;63859;51.064;4.580;2023-01-04T07:47:21;12.00;99.90
75262;DHT22;63859;51.064;4.580;2023-01-04T07:49:47;12.00;99.90
75262;DHT22;63859;51.064;4.580;2023-01-04T07:52:14;12.00;99.90
75262;DHT22;63859;51.064;4.580;2023-01-04T07:54:40;12.00;99.90
75262;DHT22;63859;51.064;4.580;2023-01-04T07:57:06;12.00;99.90
75262;DHT22;63859;51.064;4.580;2023-01-04T07:59:31;12.00;99.90
75262;DHT22;63859;51.064;4.580;2023-01-04T08:01:57;12.00;99.90
75262;DHT22;63859;51.064;4.580;2023-01-04T08:04:23;12.10;99.90
75262;DHT22;63859;51.064;4.580;2023-01-04T08:06:49;12.10;99.90
75262;DHT22;63859;51.064;4.580;2023-01-04T08:09:15;12.10;99.90
75262;DHT22;63859;51.064;4.580;2023-01-04T08:11:42;12.10;99.90
75262;DHT22;63859;51.064;4.580;2023-01-04T08:14:08;12.10;99.90
75262;DHT22;63859;51.064;4.580;2023-01-04T08:16:36;12.10;99.90
75262;DHT22;63859;51.064;4.580;2023-01-04T08:19:16;12.20;99.90
75262;DHT22;63859;51.064;4.580;2023-01-04T08:21:42;12.10;99.90
75262;DHT22;63859;51.064;4.580;2023-01-04T08:24:10;12.10;99.90
75262;DHT22;63859;51.064;4.580;2023-01-04T08:26:36;12.10;99.90
75262;DHT22;63859;51.064;4.580;2023-01-04T08:29:01;12.10;99.90
75262;DHT22;63859;51.064;4.580;2023-01-04T08:31:29;12.10;99.90
75262;DHT22;63859;51.064;4.580;2023-01-04T08:33:56;12.10;99.90
75262;DHT22;63859;51.064;4.580;2023-01-04T08:36:30;12.10;99.90
75262;DHT22;63859;51.064;4.580;2023-01-04T08:38:58;12.10;99.90
75262;DHT22;63859;51.064;4.580;2023-01-04T08:41:24;12.10;99.90
75262;DHT22;63859;51.064;4.580;2023-01-04T08:43:50;12.00;99.90
75262;DHT22;63859;51.064;4.580;2023-01-04T08:46:15;12.10;99.90
75262;DHT22;63859;51.064;4.580;2023-01-04T08:48:41;12.00;99.90
75262;DHT22;63859;51.064;4.580;2023-01-04T08:51:13;12.00;99.90
75262;DHT22;63859;51.064;4.580;2023-01-04T08:53:39;12.00;99.90
75262;DHT22;63859;51.064;4.580;2023-01-04T08:56:05;12.00;99.90
75262;DHT22;63859;51.064;4.580;2023-01-04T08:58:35;12.00;99.90
75262;DHT22;63859;51.064;4.580;2023-01-04T09:01:03;12.00;99.90
75262;DHT22;63859;51.064;4.580;2023-01-04T09:03:29;12.00;99.90
75262;DHT22;63859;51.064;4.580;2023-01-04T09:06:07;12.10;99.90
75262;DHT22;63859;51.064;4.580;2023-01-04T09:08:33;12.10;99.90
75262;DHT22;63859;51.064;4.580;2023-01-04T09:11:04;12.10;99.90
75262;DHT22;63859;51.064;4.580;2023-01-04T09:13:31;12.10;99.90
75262;DHT22;63859;51.064;4.580;2023-01-04T09:16:02;12.20;99.90
75262;DHT22;63859;51.064;4.580;2023-01-04T09:18:28;12.20;99.90
75262;DHT22;63859;51.064;4.580;2023-01-04T09:20:53;12.20;99.90
75262;DHT22;63859;51.064;4.580;2023-01-04T09:23:19;12.20;99.90
75262;DHT22;63859;51.064;4.580;2023-01-04T09:25:44;12.20;99.90
75262;DHT22;63859;51.064;4.580;2023-01-04T09:28:10;12.20;99.90
75262;DHT22;63859;51.064;4.580;2023-01-04T09:30:36;12.30;99.90
75262;DHT22;63859;51.064;4.580;2023-01-04T09:33:01;12.30;99.90
75262;DHT22;63859;51.064;4.580;2023-01-04T09:35:27;12.30;99.90
75262;DHT22;63859;51.064;4.580;2023-01-04T09:37:54;12.30;99.90
75262;DHT22;63859;51.064;4.580;2023-01-04T09:40:26;12.40;99.90
75262;DHT22;63859;51.064;4.580;2023-01-04T09:42:53;12.40;99.90
75262;DHT22;63859;51.064;4.580;2023-01-04T09:45:22;12.40;99.90
75262;DHT22;63859;51.064;4.580;2023-01-04T09:48:12;12.40;99.90
75262;DHT22;63859;51.064;4.580;2023-01-04T09:50:50;12.40;99.90
75262;DHT22;63859;51.064;4.580;2023-01-04T09:55:49;12.50;99.90
75262;DHT22;63859;51.064;4.580;2023-01-04T09:58:32;12.40;99.90
75262;DHT22;63859;51.064;4.580;2023-01-04T10:03:37;12.40;99.90
75262;DHT22;63859;51.064;4.580;2023-01-04T10:06:05;12.40;99.90
75262;DHT22;63859;51.064;4.580;2023-01-04T10:08:31;12.40;99.90
75262;DHT22;63859;51.064;4.580;2023-01-04T10:33:40;12.40;99.90
75262;DHT22;63859;51.064;4.580;2023-01-04T10:36:18;12.30;99.90
75262;DHT22;63859;51.064;4.580;2023-01-04T10:38:44;12.30;99.90
75262;DHT22;63859;51.064;4.580;2023-01-04T10:41:16;12.30;99.90
75262;DHT22;63859;51.064;4.580;2023-01-04T10:44:16;12.30;99.90
75262;DHT22;63859;51.064;4.580;2023-01-04T10:47:01;12.20;99.90
75262;DHT22;63859;51.064;4.580;2023-01-04T10:49:55;12.20;99.90
75262;DHT22;63859;51.064;4.580;2023-01-04T10:55:18;12.10;99.90
75262;DHT22;63859;51.064;4.580;2023-01-04T10:58:23;12.10;99.90
75262;DHT22;63859;51.064;4.580;2023-01-04T11:00:55;12.10;99.90
75262;DHT22;63859;51.064;4.580;2023-01-04T11:03:34;12.10;99.90
75262;DHT22;63859;51.064;4.580;2023-01-04T11:08:55;12.10;99.90
75262;DHT22;63859;51.064;4.580;2023-01-04T11:11:34;12.10;99.90
75262;DHT22;63859;51.064;4.580;2023-01-04T11:14:02;12.00;99.90
75262;DHT22;63859;51.064;4.580;2023-01-04T11:16:28;12.10;99.90
75262;DHT22;63859;51.064;4.580;2023-01-04T11:18:55;12.10;99.90
75262;DHT22;63859;51.064;4.580;2023-01-04T11:21:24;12.00;99.90
75262;DHT22;63859;51.064;4.580;2023-01-04T11:23:50;12.00;99.90
75262;DHT22;63859;51.064;4.580;2023-01-04T11:26:21;12.00;99.90
75262;DHT22;63859;51.064;4.580;2023-01-04T11:28:56;12.10;99.90
75262;DHT22;63859;51.064;4.580;2023-01-04T11:31:43;12.00;99.90
75262;DHT22;63859;51.064;4.580;2023-01-04T11:34:10;12.10;99.90
75262;DHT22;63859;51.064;4.580;2023-01-04T11:36:43;12.00;99.90
75262;DHT22;63859;51.064;4.580;2023-01-04T11:39:20;12.10;99.90
75262;DHT22;63859;51.064;4.580;2023-01-04T11:42:00;12.00;99.90
75262;DHT22;63859;51.064;4.580;2023-01-04T11:44:32;12.00;99.90
75262;DHT22;63859;51.064;4.580;2023-01-04T11:47:20;12.00;99.90
75262;DHT22;63859;51.064;4.580;2023-01-04T11:49:48;12.10;99.90
75262;DHT22;63859;51.064;4.580;2023-01-04T11:52:37;12.10;99.90
75262;DHT22;63859;51.064;4.580;2023-01-04T11:57:41;12.10;99.90
75262;DHT22;63859;51.064;4.580;2023-01-04T12:00:14;12.10;99.90
75262;DHT22;63859;51.064;4.580;2023-01-04T12:02:40;12.10;99.90
75262;DHT22;63859;51.064;4.580;2023-01-04T12:05:19;12.20;99.90
75262;DHT22;63859;51.064;4.580;2023-01-04T12:07:45;12.30;99.90
75262;DHT22;63859;51.064;4.580;2023-01-04T12:10:23;12.10;99.90
75262;DHT22;63859;51.064;4.580;2023-01-04T12:12:51;12.10;99.90
75262;DHT22;63859;51.064;4.580;2023-01-04T12:15:33;12.10;99.90
75262;DHT22;63859;51.064;4.580;2023-01-04T12:18:09;12.10;99.90
75262;DHT22;63859;51.064;4.580;2023-01-04T12:20:37;12.10;99.90
75262;DHT22;63859;51.064;4.580;2023-01-04T12:23:02;12.20;99.90
75262;DHT22;63859;51.064;4.580;2023-01-04T12:25:33;12.20;99.90
75262;DHT22;63859;51.064;4.580;2023-01-04T12:27:59;12.10;99.90
75262;DHT22;63859;51.064;4.580;2023-01-04T12:30:38;12.10;99.90
75262;DHT22;63859;51.064;4.580;2023-01-04T12:36:00;12.20;99.90
75262;DHT22;63859;51.064;4.580;2023-01-04T12:50:11;12.20;99.90
75262;DHT22;63859;51.064;4.580;2023-01-04T12:52:52;12.20;99.90
75262;DHT22;63859;51.064;4.580;2023-01-04T12:57:56;12.20;99.90
75262;DHT22;63859;51.064;4.580;2023-01-04T13:01:06;12.20;99.90
75262;DHT22;63859;51.064;4.580;2023-01-04T13:06:04;12.30;99.90
75262;DHT22;63859;51.064;4.580;2023-01-04T13:08:40;12.30;99.90
75262;DHT22;63859;51.064;4.580;2023-01-04T13:14:09;12.30;99.90
75262;DHT22;63859;51.064;4.580;2023-01-04T13:16:54;12.30;99.90
75262;DHT22;63859;51.064;4.580;2023-01-04T13:19:25;12.30;99.90
75262;DHT22;63859;51.064;4.580;2023-01-04T13:21:53;12.40;99.90
75262;DHT22;63859;51.064;4.580;2023-01-04T13:24:30;12.30;99.90
75262;DHT22;63859;51.064;4.580;2023-01-04T13:27:03;12.40;99.90
75262;DHT22;63859;51.064;4.580;2023-01-04T13:29:32;12.40;99.90
75262;DHT22;63859;51.064;4.580;2023-01-04T13:34:41;12.50;99.90
75262;DHT22;63859;51.064;4.580;2023-01-04T13:39:43;12.60;99.90
75262;DHT22;63859;51.064;4.580;2023-01-04T13:42:37;12.60;99.90
75262;DHT22;63859;51.064;4.580;2023-01-04T13:45:16;12.60;99.90
75262;DHT22;63859;51.064;4.580;2023-01-04T13:47:50;12.60;99.90
75262;DHT22;63859;51.064;4.580;2023-01-04T13:50:37;12.60;99.90
75262;DHT22;63859;51.064;4.580;2023-01-04T13:53:37;12.60;99.90
75262;DHT22;63859;51.064;4.580;2023-01-04T13:56:03;12.70;99.90
75262;DHT22;63859;51.064;4.580;2023-01-04T13:58:33;12.60;99.90
75262;DHT22;63859;51.064;4.580;2023-01-04T14:01:05;12.70;99.90
75262;DHT22;63859;51.064;4.580;2023-01-04T14:03:51;12.70;99.90
75262;DHT22;63859;51.064;4.580;2023-01-04T14:06:24;12.60;99.90
75262;DHT22;63859;51.064;4.580;2023-01-04T14:08:52;12.60;99.90
75262;DHT22;63859;51.064;4.580;2023-01-04T14:11:30;12.60;99.90
75262;DHT22;63859;51.064;4.580;2023-01-04T14:17:15;12.50;99.90
75262;DHT22;63859;51.064;4.580;2023-01-04T14:19:59;12.50;99.90
75262;DHT22;63859;51.064;4.580;2023-01-04T14:25:30;12.40;99.90
75262;DHT22;63859;51.064;4.580;2023-01-04T14:33:31;12.40;99.90
75262;DHT22;63859;51.064;4.580;2023-01-04T14:36:18;12.40;99.90
75262;DHT22;63859;51.064;4.580;2023-01-04T14:44:15;12.40;99.90
75262;DHT22;63859;51.064;4.580;2023-01-04T14:46:43;12.40;99.90
75262;DHT22;63859;51.064;4.580;2023-01-04T14:49:12;12.40;99.90
75262;DHT22;63859;51.064;4.580;2023-01-04T14:51:42;12.40;99.90
75262;DHT22;63859;51.064;4.580;2023-01-04T14:54:10;12.40;99.90
75262;DHT22;63859;51.064;4.580;2023-01-04T14:56:36;12.40;99.90
75262;DHT22;63859;51.064;4.580;2023-01-04T14:59:01;12.40;99.90
75262;DHT22;63859;51.064;4.580;2023-01-04T15:01:27;12.40;99.90
75262;DHT22;63859;51.064;4.580;2023-01-04T15:03:53;12.40;99.90
75262;DHT22;63859;51.064;4.580;2023-01-04T15:06:18;12.40;99.90
75262;DHT22;63859;51.064;4.580;2023-01-04T15:08:44;12.40;99.90
75262;DHT22;63859;51.064;4.580;2023-01-04T15:11:13;12.40;99.90
75262;DHT22;63859;51.064;4.580;2023-01-04T15:13:39;12.40;99.90
75262;DHT22;63859;51.064;4.580;2023-01-04T15:16:05;12.40;99.90
75262;DHT22;63859;51.064;4.580;2023-01-04T15:18:31;12.50;99.90
75262;DHT22;63859;51.064;4.580;2023-01-04T15:20:57;12.50;99.90
75262;DHT22;63859;51.064;4.580;2023-01-04T15:23:22;12.50;99.90
75262;DHT22;63859;51.064;4.580;2023-01-04T15:25:48;12.50;99.90
75262;DHT22;63859;51.064;4.580;2023-01-04T15:28:13;12.60;99.90
75262;DHT22;63859;51.064;4.580;2023-01-04T15:30:41;12.60;99.90
75262;DHT22;63859;51.064;4.580;2023-01-04T15:33:07;12.60;99.90
75262;DHT22;63859;51.064;4.580;2023-01-04T15:35:33;12.70;99.90
75262;DHT22;63859;51.064;4.580;2023-01-04T15:37:58;12.70;99.90
75262;DHT22;63859;51.064;4.580;2023-01-04T15:40:24;12.70;99.90
75262;DHT22;63859;51.064;4.580;2023-01-04T15:42:49;12.70;99.90
75262;DHT22;63859;51.064;4.580;2023-01-04T15:45:26;12.70;99.90
75262;DHT22;63859;51.064;4.580;2023-01-04T15:47:52;12.70;99.90
75262;DHT22;63859;51.064;4.580;2023-01-04T15:50:18;12.70;99.90
75262;DHT22;63859;51.064;4.580;2023-01-04T15:52:44;12.70;99.90
75262;DHT22;63859;51.064;4.580;2023-01-04T15:55:09;12.70;99.90
75262;DHT22;63859;51.064;4.580;2023-01-04T15:57:36;12.70;99.90
75262;DHT22;63859;51.064;4.580;2023-01-04T16:00:03;12.70;99.90
75262;DHT22;63859;51.064;4.580;2023-01-04T16:02:29;12.70;99.90
75262;DHT22;63859;51.064;4.580;2023-01-04T16:04:56;12.60;99.90
75262;DHT22;63859;51.064;4.580;2023-01-04T16:07:21;12.60;99.90
75262;DHT22;63859;51.064;4.580;2023-01-04T16:09:47;12.60;99.90
75262;DHT22;63859;51.064;4.580;2023-01-04T16:12:12;12.60;99.90
75262;DHT22;63859;51.064;4.580;2023-01-04T16:14:56;12.50;99.90
75262;DHT22;63859;51.064;4.580;2023-01-04T16:17:22;12.50;99.90
75262;DHT22;63859;51.064;4.580;2023-01-04T16:19:49;12.40;99.90
75262;DHT22;63859;51.064;4.580;2023-01-04T16:22:15;12.40;99.90
75262;DHT22;63859;51.064;4.580;2023-01-04T16:24:40;12.40;99.90
75262;DHT22;63859;51.064;4.580;2023-01-04T16:27:06;12.40;99.90
75262;DHT22;63859;51.064;4.580;2023-01-04T16:29:31;12.40;99.90
75262;DHT22;63859;51.064;4.580;2023-01-04T16:31:57;12.40;99.90
75262;DHT22;63859;51.064;4.580;2023-01-04T16:34:23;12.40;99.90
75262;DHT22;63859;51.064;4.580;2023-01-04T16:36:49;12.30;99.90
75262;DHT22;63859;51.064;4.580;2023-01-04T16:39:14;12.30;99.90
75262;DHT22;63859;51.064;4.580;2023-01-04T16:41:40;12.40;99.90
75262;DHT22;63859;51.064;4.580;2023-01-04T16:44:05;12.30;99.90
75262;DHT22;63859;51.064;4.580;2023-01-04T16:46:33;12.30;99.90
75262;DHT22;63859;51.064;4.580;2023-01-04T16:49:14;12.40;99.90
75262;DHT22;63859;51.064;4.580;2023-01-04T16:51:43;12.40;99.90
75262;DHT22;63859;51.064;4.580;2023-01-04T16:54:12;12.30;99.90
75262;DHT22;63859;51.064;4.580;2023-01-04T16:56:38;12.30;99.90
75262;DHT22;63859;51.064;4.580;2023-01-04T16:59:04;12.40;99.90
75262;DHT22;63859;51.064;4.580;2023-01-04T17:01:32;12.30;99.90
75262;DHT22;63859;51.064;4.580;2023-01-04T17:04:00;12.30;99.90
75262;DHT22;63859;51.064;4.580;2023-01-04T17:06:28;12.30;99.90
75262;DHT22;63859;51.064;4.580;2023-01-04T17:08:55;12.30;99.90
75262;DHT22;63859;51.064;4.580;2023-01-04T17:11:23;12.30;99.90
75262;DHT22;63859;51.064;4.580;2023-01-04T17:13:49;12.30;99.90
75262;DHT22;63859;51.064;4.580;2023-01-04T17:16:15;12.30;99.90
75262;DHT22;63859;51.064;4.580;2023-01-04T17:18:41;12.30;99.90
75262;DHT22;63859;51.064;4.580;2023-01-04T17:21:11;12.30;99.90
75262;DHT22;63859;51.064;4.580;2023-01-04T17:23:40;12.30;99.90
75262;DHT22;63859;51.064;4.580;2023-01-04T17:26:15;12.30;99.90
75262;DHT22;63859;51.064;4.580;2023-01-04T17:28:42;12.30;99.90
75262;DHT22;63859;51.064;4.580;2023-01-04T17:31:19;12.30;99.90
75262;DHT22;63859;51.064;4.580;2023-01-04T17:33:46;12.30;99.90
75262;DHT22;63859;51.064;4.580;2023-01-04T17:36:13;12.30;99.90
75262;DHT22;63859;51.064;4.580;2023-01-04T17:38:39;12.30;99.90
75262;DHT22;63859;51.064;4.580;2023-01-04T17:41:25;12.30;99.90